Time;durP1;ratioP1;P1;durP2;ratioP2;P2;SDS_P1;SDS_P2;PMS_P1;PMS_P2;Temp;Humidity;BMP_temperature;BMP_pressure;BME280_temperature;BME280_humidity;BME280_pressure;Samples;Min_cycle;Max_cycle;Signal;HPM_P1;HPM_P2
2024/02/18 00:00:34;;;;;;;3.08;2.10;;;;;;;;;;5096324;28;20016;-59
2024/02/18 00:02:59;;;;;;;3.33;1.98;;;;;;;;;;5078506;28;20020;-59
2024/02/18 00:05:25;;;;;;;3.47;1.98;;;;;;;;;;5096192;28;20381;-59
2024/02/18 00:07:50;;;;;;;2.67;2.13;;;;;;;;;;5078133;28;20055;-59
2024/02/18 00:10:16;;;;;;;2.45;2.00;;;;;;;;;;5095990;28;20032;-60
2024/02/18 00:12:41;;;;;;;2.47;1.98;;;;;;;;;;5077598;28;20067;-60
2024/02/18 00:15:07;;;;;;;2.88;1.88;;;;;;;;;;5095733;28;20038;-59
2024/02/18 00:17:32;;;;;;;2.97;1.90;;;;;;;;;;5095087;28;20039;-59
2024/02/18 00:19:57;;;;;;;2.13;1.67;;;;;;;;;;5094916;28;20462;-59
2024/02/18 00:22:23;;;;;;;2.38;1.90;;;;;;;;;;5095237;28;20424;-59
2024/02/18 00:24:50;;;;;;;1.98;1.75;;;;;;;;;;5095913;28;20024;-59
2024/02/18 00:27:15;;;;;;;2.60;1.95;;;;;;;;;;5095713;28;20031;-60
2024/02/18 00:29:41;;;;;;;2.22;1.88;;;;;;;;;;5096418;28;20032;-60
2024/02/18 00:32:06;;;;;;;2.22;1.92;;;;;;;;;;5095638;28;20363;-60
2024/02/18 00:34:32;;;;;;;2.83;1.88;;;;;;;;;;5094852;28;20381;-63
2024/02/18 00:36:57;;;;;;;3.35;2.40;;;;;;;;;;5095930;28;20024;-63
2024/02/18 00:39:22;;;;;;;4.03;1.98;;;;;;;;;;5095599;28;20047;-63
2024/02/18 00:41:48;;;;;;;2.55;2.00;;;;;;;;;;5078092;28;20024;-62
2024/02/18 00:44:13;;;;;;;2.83;2.15;;;;;;;;;;5077946;28;20032;-62
2024/02/18 00:46:38;;;;;;;2.03;1.77;;;;;;;;;;5095361;28;20028;-59
2024/02/18 00:49:04;;;;;;;2.03;1.70;;;;;;;;;;5095275;28;20498;-58
2024/02/18 00:51:29;;;;;;;2.30;2.10;;;;;;;;;;5095976;28;20036;-57
2024/02/18 00:53:56;;;;;;;3.00;2.47;;;;;;;;;;5095227;28;20122;-57
2024/02/18 00:56:21;;;;;;;3.45;2.70;;;;;;;;;;5095265;28;20102;-57
2024/02/18 00:58:48;;;;;;;4.13;3.00;;;;;;;;;;5095246;28;20042;-57
2024/02/18 01:01:13;;;;;;;3.25;2.33;;;;;;;;;;5104589;28;20016;-57
2024/02/18 01:03:39;;;;;;;4.07;2.97;;;;;;;;;;5115828;28;20414;-57
2024/02/18 01:06:04;;;;;;;5.18;3.13;;;;;;;;;;5115661;28;20435;-57
2024/02/18 01:08:30;;;;;;;4.82;3.25;;;;;;;;;;5115786;28;20389;-57
2024/02/18 01:10:55;;;;;;;4.28;3.00;;;;;;;;;;5115775;28;20067;-59
2024/02/18 01:13:21;;;;;;;4.18;3.10;;;;;;;;;;5115788;28;20100;-59
2024/02/18 01:15:46;;;;;;;3.30;2.65;;;;;;;;;;5115183;28;20016;-59
2024/02/18 01:18:11;;;;;;;3.03;2.35;;;;;;;;;;5115335;28;20042;-58
2024/02/18 01:20:37;;;;;;;3.80;2.42;;;;;;;;;;5094631;28;20031;-60
2024/02/18 01:23:03;;;;;;;2.75;2.17;;;;;;;;;;5094896;28;20401;-58
2024/02/18 01:25:28;;;;;;;3.08;2.28;;;;;;;;;;5094987;28;20043;-58
2024/02/18 01:27:54;;;;;;;2.13;2.03;;;;;;;;;;5094516;28;20462;-58
2024/02/18 01:30:20;;;;;;;3.13;1.85;;;;;;;;;;5094826;28;20081;-58
2024/02/18 01:32:46;;;;;;;2.38;1.73;;;;;;;;;;5076507;28;20484;-63
2024/02/18 01:35:15;;;;;;;2.20;1.80;;;;;;;;;;5094704;28;20028;-64
2024/02/18 01:37:41;;;;;;;2.00;1.77;;;;;;;;;;5094616;28;20078;-63
2024/02/18 01:40:13;;;;;;;3.78;1.80;;;;;;;;;;5094298;28;20116;-59
2024/02/18 01:42:39;;;;;;;3.55;2.05;;;;;;;;;;5094589;28;20016;-60
2024/02/18 01:45:08;;;;;;;2.00;1.80;;;;;;;;;;5076437;28;20027;-62
2024/02/18 01:47:36;;;;;;;3.45;2.25;;;;;;;;;;5094195;28;20024;-59
2024/02/18 01:50:01;;;;;;;3.33;1.75;;;;;;;;;;5075576;28;20032;-62
2024/02/18 01:52:28;;;;;;;2.25;1.75;;;;;;;;;;5093630;28;20115;-59
2024/02/18 01:54:55;;;;;;;1.90;1.65;;;;;;;;;;5093555;28;20028;-59
2024/02/18 01:57:22;;;;;;;1.95;1.80;;;;;;;;;;5093327;28;20035;-59
2024/02/18 01:59:48;;;;;;;2.58;1.73;;;;;;;;;;5093171;28;20024;-58
2024/02/18 02:02:13;;;;;;;1.70;1.60;;;;;;;;;;5092664;28;20035;-63
2024/02/18 02:04:39;;;;;;;3.08;1.88;;;;;;;;;;5092781;28;20066;-63
2024/02/18 02:07:06;;;;;;;2.60;1.85;;;;;;;;;;5092913;28;20008;-62
2024/02/18 02:09:31;;;;;;;2.67;1.80;;;;;;;;;;5075021;28;20092;-63
2024/02/18 02:11:57;;;;;;;2.47;1.90;;;;;;;;;;5092815;28;20478;-62
2024/02/18 02:14:22;;;;;;;2.10;1.90;;;;;;;;;;5092115;28;20046;-63
2024/02/18 02:16:47;;;;;;;2.95;1.83;;;;;;;;;;5092533;28;20047;-59
2024/02/18 02:19:13;;;;;;;2.92;1.80;;;;;;;;;;5101908;28;20039;-59
2024/02/18 02:21:39;;;;;;;2.50;1.70;;;;;;;;;;5113191;28;20089;-59
2024/02/18 02:24:05;;;;;;;2.88;1.80;;;;;;;;;;5093916;28;20035;-59
2024/02/18 02:26:31;;;;;;;1.60;1.50;;;;;;;;;;5113216;28;20024;-59
2024/02/18 02:29:12;;;;;;;1.92;1.77;;;;;;;;;;5114750;28;20032;-59
2024/02/18 02:31:40;;;;;;;1.95;1.48;;;;;;;;;;5114045;28;20043;-58
2024/02/18 02:34:05;;;;;;;3.17;1.80;;;;;;;;;;5095624;28;20116;-58
2024/02/18 02:36:31;;;;;;;3.50;1.90;;;;;;;;;;5114519;28;20434;-58
2024/02/18 02:38:56;;;;;;;2.92;1.95;;;;;;;;;;5114150;28;20047;-62
2024/02/18 02:41:22;;;;;;;2.50;1.75;;;;;;;;;;5114238;28;20035;-62
2024/02/18 02:43:47;;;;;;;1.88;1.77;;;;;;;;;;5095689;28;20547;-62
2024/02/18 02:46:12;;;;;;;2.30;2.10;;;;;;;;;;5114365;28;20023;-60
2024/02/18 02:48:37;;;;;;;3.20;2.05;;;;;;;;;;5095971;28;20412;-60
2024/02/18 02:51:03;;;;;;;2.55;2.05;;;;;;;;;;5114135;28;20078;-62
2024/02/18 02:53:28;;;;;;;2.05;1.92;;;;;;;;;;5113962;28;20032;-63
2024/02/18 02:55:54;;;;;;;2.15;1.90;;;;;;;;;;5114089;28;20023;-63
2024/02/18 02:58:19;;;;;;;3.47;2.00;;;;;;;;;;5099555;28;20485;-63
2024/02/18 03:00:44;;;;;;;2.88;1.90;;;;;;;;;;5117872;28;20015;-60
2024/02/18 03:03:10;;;;;;;2.22;2.03;;;;;;;;;;5118203;28;20457;-63
2024/02/18 03:05:35;;;;;;;2.10;1.90;;;;;;;;;;5118128;28;20110;-63
2024/02/18 03:08:00;;;;;;;3.05;2.00;;;;;;;;;;5117994;28;20419;-63
2024/02/18 03:10:26;;;;;;;3.22;2.47;;;;;;;;;;5099625;28;20143;-63
2024/02/18 03:12:51;;;;;;;3.72;2.25;;;;;;;;;;5118231;28;20031;-62
2024/02/18 03:15:16;;;;;;;3.42;2.30;;;;;;;;;;5099281;28;20046;-63
2024/02/18 03:17:42;;;;;;;3.15;2.35;;;;;;;;;;5099902;28;20111;-63
2024/02/18 03:20:11;;;;;;;2.35;2.15;;;;;;;;;;5117737;28;20039;-59
2024/02/18 03:22:36;;;;;;;3.60;2.33;;;;;;;;;;5117959;28;20035;-60
2024/02/18 03:25:02;;;;;;;2.85;2.35;;;;;;;;;;5117569;28;20373;-60
2024/02/18 03:27:27;;;;;;;3.03;2.25;;;;;;;;;;5117598;28;20024;-63
2024/02/18 03:29:54;;;;;;;2.67;2.08;;;;;;;;;;5117826;28;20525;-63
2024/02/18 03:32:19;;;;;;;3.28;2.13;;;;;;;;;;5117642;28;20373;-63
2024/02/18 03:34:46;;;;;;;2.40;2.10;;;;;;;;;;5099487;28;20044;-62
2024/02/18 03:37:11;;;;;;;2.40;2.20;;;;;;;;;;5117118;28;20461;-62
2024/02/18 03:39:37;;;;;;;3.03;2.50;;;;;;;;;;5098761;28;20040;-62
2024/02/18 03:42:04;;;;;;;2.40;2.20;;;;;;;;;;5117307;28;20056;-58
2024/02/18 03:44:29;;;;;;;2.45;2.08;;;;;;;;;;5117385;28;20081;-58
2024/02/18 03:46:54;;;;;;;2.08;1.98;;;;;;;;;;5099707;28;20024;-57
2024/02/18 03:49:20;;;;;;;4.45;2.25;;;;;;;;;;5117184;28;20431;-57
2024/02/18 03:51:45;;;;;;;3.03;1.88;;;;;;;;;;5117088;28;20028;-57
2024/02/18 03:54:13;;;;;;;2.78;1.98;;;;;;;;;;5117343;28;20042;-58
2024/02/18 03:56:39;;;;;;;3.30;2.63;;;;;;;;;;5116849;28;20115;-58
2024/02/18 03:59:04;;;;;;;4.03;2.20;;;;;;;;;;5098340;28;20165;-58
2024/02/18 04:01:29;;;;;;;3.03;1.80;;;;;;;;;;5116766;28;20494;-57
2024/02/18 04:03:55;;;;;;;2.33;2.08;;;;;;;;;;5116881;28;20036;-62
2024/02/18 04:06:20;;;;;;;2.30;2.10;;;;;;;;;;5099039;28;20030;-63
2024/02/18 04:08:46;;;;;;;3.45;1.83;;;;;;;;;;5116333;28;20039;-63
2024/02/18 04:11:11;;;;;;;2.15;1.77;;;;;;;;;;5116937;28;20019;-62
2024/02/18 04:13:36;;;;;;;2.60;1.65;;;;;;;;;;5116544;28;20051;-62
2024/02/18 04:16:03;;;;;;;2.70;1.70;;;;;;;;;;5098164;28;20111;-63
2024/02/18 04:18:28;;;;;;;2.13;1.70;;;;;;;;;;5116088;28;20059;-63
2024/02/18 04:20:53;;;;;;;2.28;1.85;;;;;;;;;;5116605;28;20500;-63
2024/02/18 04:23:19;;;;;;;2.88;2.05;;;;;;;;;;5116214;28;20039;-63
2024/02/18 04:25:44;;;;;;;1.90;1.77;;;;;;;;;;5116754;28;20058;-62
2024/02/18 04:28:10;;;;;;;3.00;1.98;;;;;;;;;;5116721;28;20054;-62
2024/02/18 04:30:35;;;;;;;2.88;1.85;;;;;;;;;;5098081;28;20024;-62
2024/02/18 04:33:00;;;;;;;2.03;1.63;;;;;;;;;;5115971;28;20027;-62
2024/02/18 04:35:26;;;;;;;1.90;1.80;;;;;;;;;;5098397;28;20028;-62
2024/02/18 04:37:52;;;;;;;2.88;1.77;;;;;;;;;;5116136;28;20035;-62
2024/02/18 04:40:17;;;;;;;1.70;1.60;;;;;;;;;;5115909;28;20458;-62
2024/02/18 04:42:43;;;;;;;2.55;2.20;;;;;;;;;;5116630;28;20042;-62
2024/02/18 04:45:08;;;;;;;2.83;1.90;;;;;;;;;;5115945;28;20027;-58
2024/02/18 04:47:33;;;;;;;3.28;2.20;;;;;;;;;;5116553;28;20015;-58
2024/02/18 04:50:03;;;;;;;2.67;1.73;;;;;;;;;;5116390;28;20019;-62
2024/02/18 04:52:29;;;;;;;2.50;1.90;;;;;;;;;;5097479;28;20423;-62
2024/02/18 04:54:55;;;;;;;2.00;1.80;;;;;;;;;;5115749;28;20024;-62
2024/02/18 04:57:20;;;;;;;2.13;1.83;;;;;;;;;;5097797;28;20027;-62
2024/02/18 04:59:45;;;;;;;3.72;1.80;;;;;;;;;;5115716;28;20031;-62
2024/02/18 05:02:11;;;;;;;2.15;1.45;;;;;;;;;;5097247;28;20481;-62
2024/02/18 05:04:37;;;;;;;2.60;2.08;;;;;;;;;;5115399;28;20462;-58
2024/02/18 05:07:02;;;;;;;2.40;1.90;;;;;;;;;;5115679;28;20020;-62
2024/02/18 05:09:28;;;;;;;3.30;1.90;;;;;;;;;;5097375;28;20350;-62
2024/02/18 05:11:54;;;;;;;2.00;1.90;;;;;;;;;;5115464;28;20035;-58
2024/02/18 05:14:19;;;;;;;2.92;2.30;;;;;;;;;;5115246;28;20024;-58
2024/02/18 05:16:45;;;;;;;3.35;2.60;;;;;;;;;;5097372;28;20381;-58
2024/02/18 05:19:10;;;;;;;3.80;2.55;;;;;;;;;;5114967;28;20067;-62
2024/02/18 05:21:39;;;;;;;4.53;2.40;;;;;;;;;;5115087;28;20095;-62
2024/02/18 05:24:05;;;;;;;2.25;2.08;;;;;;;;;;5115270;28;20031;-63
2024/02/18 05:26:30;;;;;;;2.45;2.25;;;;;;;;;;5115582;28;20028;-64
2024/02/18 05:28:55;;;;;;;2.38;2.10;;;;;;;;;;5114980;28;20031;-63
2024/02/18 05:31:22;;;;;;;4.20;2.45;;;;;;;;;;5115296;28;20119;-59
2024/02/18 05:33:48;;;;;;;2.47;2.25;;;;;;;;;;5114961;28;20032;-62
2024/02/18 05:36:13;;;;;;;2.97;2.10;;;;;;;;;;5115357;28;20062;-63
2024/02/18 05:38:40;;;;;;;2.40;1.70;;;;;;;;;;5115001;28;20032;-59
2024/02/18 05:41:05;;;;;;;2.05;1.85;;;;;;;;;;5115272;28;20028;-59
2024/02/18 05:43:30;;;;;;;3.05;1.90;;;;;;;;;;5096665;28;20032;-59
2024/02/18 05:45:56;;;;;;;3.30;2.30;;;;;;;;;;5114955;28;20080;-59
2024/02/18 05:48:21;;;;;;;3.08;2.17;;;;;;;;;;5114945;28;20024;-60
2024/02/18 05:50:47;;;;;;;2.60;2.40;;;;;;;;;;5115013;28;20034;-59
2024/02/18 05:53:12;;;;;;;2.30;2.10;;;;;;;;;;5115196;28;20366;-59
2024/02/18 05:55:38;;;;;;;3.10;2.55;;;;;;;;;;5096478;28;20032;-59
2024/02/18 05:58:03;;;;;;;3.13;2.55;;;;;;;;;;5115022;28;20104;-59
2024/02/18 06:00:29;;;;;;;2.25;2.05;;;;;;;;;;5096283;28;20621;-58
2024/02/18 06:02:54;;;;;;;2.60;2.30;;;;;;;;;;5114380;28;20119;-59
2024/02/18 06:05:19;;;;;;;2.70;2.10;;;;;;;;;;5114567;28;20023;-63
2024/02/18 06:07:45;;;;;;;1.92;1.80;;;;;;;;;;5114483;28;20043;-59
2024/02/18 06:10:10;;;;;;;1.75;1.60;;;;;;;;;;5114698;28;20047;-58
2024/02/18 06:12:36;;;;;;;3.80;2.20;;;;;;;;;;5114364;28;20034;-59
2024/02/18 06:15:01;;;;;;;3.08;1.90;;;;;;;;;;5114404;28;20031;-58
2024/02/18 06:17:27;;;;;;;2.03;1.80;;;;;;;;;;5114243;28;20041;-58
2024/02/18 06:19:52;;;;;;;2.08;1.88;;;;;;;;;;5114355;28;20048;-58
2024/02/18 06:22:18;;;;;;;2.33;2.13;;;;;;;;;;5096564;28;20028;-58
2024/02/18 06:24:43;;;;;;;3.08;1.92;;;;;;;;;;5114370;28;20089;-58
2024/02/18 06:27:08;;;;;;;1.98;1.88;;;;;;;;;;5114364;28;20185;-62
2024/02/18 06:29:34;;;;;;;2.38;1.70;;;;;;;;;;5114752;28;20069;-63
2024/02/18 06:31:59;;;;;;;1.88;1.65;;;;;;;;;;5130461;22;20058;-62
2024/02/18 06:34:25;;;;;;;2.40;2.03;;;;;;;;;;5119426;28;20028;-63
2024/02/18 06:36:50;;;;;;;2.25;1.92;;;;;;;;;;5118567;28;20020;-61
2024/02/18 06:39:16;;;;;;;3.25;1.95;;;;;;;;;;5118607;28;20474;-62
2024/02/18 06:41:41;;;;;;;2.78;1.83;;;;;;;;;;5118649;28;20022;-62
2024/02/18 06:44:07;;;;;;;2.38;2.10;;;;;;;;;;5119135;28;20461;-62
2024/02/18 06:46:32;;;;;;;2.00;1.80;;;;;;;;;;5118540;28;20016;-63
2024/02/18 06:48:58;;;;;;;2.30;1.90;;;;;;;;;;5118203;28;20036;-56
2024/02/18 06:51:23;;;;;;;2.70;2.08;;;;;;;;;;5118416;28;20034;-55
2024/02/18 06:53:49;;;;;;;2.95;2.10;;;;;;;;;;5118715;28;20024;-55
2024/02/18 06:56:17;;;;;;;2.42;1.90;;;;;;;;;;5099600;28;20123;-55
2024/02/18 06:58:42;;;;;;;2.40;2.20;;;;;;;;;;5117906;28;20028;-55
2024/02/18 07:01:07;;;;;;;2.88;2.40;;;;;;;;;;5118476;28;20028;-55
2024/02/18 07:03:33;;;;;;;3.08;2.25;;;;;;;;;;5118032;28;20034;-55
2024/02/18 07:05:59;;;;;;;2.85;2.25;;;;;;;;;;5118128;28;20031;-54
2024/02/18 07:08:24;;;;;;;3.88;2.28;;;;;;;;;;5118258;28;20031;-55
2024/02/18 07:10:50;;;;;;;2.30;2.10;;;;;;;;;;5118709;28;20131;-55
2024/02/18 07:13:17;;;;;;;3.53;2.33;;;;;;;;;;5099592;28;20079;-55
2024/02/18 07:15:44;;;;;;;2.90;2.70;;;;;;;;;;5117515;28;20104;-61
2024/02/18 07:18:09;;;;;;;4.07;3.63;;;;;;;;;;5118084;28;20069;-62
2024/02/18 07:20:34;;;;;;;2.72;2.50;;;;;;;;;;5099376;28;20035;-62
2024/02/18 07:23:01;;;;;;;2.50;2.30;;;;;;;;;;5117649;28;20031;-61
2024/02/18 07:25:28;;;;;;;6.85;4.88;;;;;;;;;;5116944;28;20031;-63
2024/02/18 07:27:55;;;;;;;3.67;3.25;;;;;;;;;;5116855;28;20047;-62
2024/02/18 07:30:23;;;;;;;3.85;3.40;;;;;;;;;;5098231;28;20047;-62
2024/02/18 07:32:52;;;;;;;3.42;2.40;;;;;;;;;;5086886;28;20068;-62
2024/02/18 07:35:19;;;;;;;4.22;2.83;;;;;;;;;;5077331;28;20099;-62
2024/02/18 07:37:47;;;;;;;2.72;2.28;;;;;;;;;;5073749;28;20051;-62
2024/02/18 07:40:22;;;;;;;3.45;2.63;;;;;;;;;;5075155;28;20032;-62
2024/02/18 07:42:55;;;;;;;13.98;8.00;;;;;;;;;;5074536;28;20027;-62
2024/02/18 07:45:23;;;;;;;2.97;2.55;;;;;;;;;;5058481;28;20036;-62
2024/02/18 07:47:54;;;;;;;3.03;2.60;;;;;;;;;;5075260;28;20417;-62
2024/02/18 07:50:20;;;;;;;3.75;2.20;;;;;;;;;;5074035;28;20048;-62
2024/02/18 07:52:45;;;;;;;3.13;2.47;;;;;;;;;;5075588;28;20047;-62
2024/02/18 07:55:11;;;;;;;4.15;2.30;;;;;;;;;;5076614;28;20060;-56
2024/02/18 07:57:39;;;;;;;2.50;2.30;;;;;;;;;;5076419;28;20025;-56
2024/02/18 08:00:07;;;;;;;18.83;6.13;;;;;;;;;;5074743;28;20040;-56
2024/02/18 08:02:34;;;;;;;32.08;10.73;;;;;;;;;;5076630;28;20033;-56
2024/02/18 08:05:07;;;;;;;24.98;8.27;;;;;;;;;;5074910;28;20552;-55
2024/02/18 08:07:35;;;;;;;12.32;5.10;;;;;;;;;;5076287;28;20475;-55
2024/02/18 08:10:13;;;;;;;15.02;8.32;;;;;;;;;;5076068;28;20466;-56
2024/02/18 08:12:41;;;;;;;19.52;7.32;;;;;;;;;;5073563;28;20115;-56
2024/02/18 08:15:10;;;;;;;12.80;5.22;;;;;;;;;;5074031;28;20374;-56
2024/02/18 08:17:36;;;;;;;12.05;5.25;;;;;;;;;;5072997;28;20108;-56
2024/02/18 08:20:06;;;;;;;17.17;7.63;;;;;;;;;;5074815;28;20032;-55
2024/02/18 08:22:32;;;;;;;13.88;5.57;;;;;;;;;;5073307;28;20100;-56
2024/02/18 08:25:02;;;;;;;11.32;4.68;;;;;;;;;;5073123;28;20063;-55
2024/02/18 08:27:29;;;;;;;10.73;5.40;;;;;;;;;;5074094;28;20027;-55
2024/02/18 08:37:19;;;;;;;5.28;3.53;;;;;;;;;;5116006;28;20085;-55
2024/02/18 08:43:21;;;;;;;7.35;4.20;;;;;;;;;;5115872;28;20070;-55
2024/02/18 08:49:23;;;;;;;5.05;2.97;;;;;;;;;;5116096;28;20163;-55
2024/02/18 08:55:25;;;;;;;2.20;2.10;;;;;;;;;;5115042;28;20027;-55
2024/02/18 09:01:28;;;;;;;2.85;2.50;;;;;;;;;;5115960;28;20396;-55
2024/02/18 09:07:31;;;;;;;2.45;2.22;;;;;;;;;;5115694;28;20034;-55
2024/02/18 09:13:33;;;;;;;4.63;3.00;;;;;;;;;;5115653;28;20031;-55
2024/02/18 09:19:36;;;;;;;3.15;1.98;;;;;;;;;;5115246;28;20081;-55
2024/02/18 09:25:37;;;;;;;2.38;2.17;;;;;;;;;;5115507;28;20058;-55
2024/02/18 09:31:42;;;;;;;2.40;2.20;;;;;;;;;;5115369;28;20373;-55
2024/02/18 09:42:10;;;;;;;;;;;;;;;;;;5115531;28;20027;-56
2024/02/18 09:48:25;;;;;;;2.97;2.38;;;;;;;;;;5114998;28;20034;-55
2024/02/18 09:54:25;;;;;;;2.70;2.50;;;;;;;;;;5115004;28;20022;-55
2024/02/18 10:00:29;;;;;;;2.35;2.15;;;;;;;;;;5114834;28;20030;-55
2024/02/18 10:06:43;;;;;;;8.35;4.90;;;;;;;;;;5114461;28;20091;-55
2024/02/18 10:12:47;;;;;;;5.50;2.90;;;;;;;;;;5114620;28;20468;-55
2024/02/18 10:18:54;;;;;;;3.22;2.60;;;;;;;;;;5114222;28;20034;-55
2024/02/18 10:24:55;;;;;;;15.25;8.65;;;;;;;;;;5114526;28;20026;-55
2024/02/18 10:30:56;;;;;;;2.95;2.75;;;;;;;;;;5114480;28;20156;-55
2024/02/18 10:40:47;;;;;;;2.33;2.13;;;;;;;;;;5114136;28;20492;-56
2024/02/18 10:46:51;;;;;;;3.45;3.15;;;;;;;;;;5114063;28;20050;-55
2024/02/18 10:56:51;;;;;;;3.63;2.60;;;;;;;;;;5114181;28;20029;-55
2024/02/18 11:02:57;;;;;;;3.08;2.78;;;;;;;;;;5114218;28;20123;-56
2024/02/18 11:08:59;;;;;;;3.33;3.00;;;;;;;;;;5071215;28;20149;-55
2024/02/18 11:15:00;;;;;;;18.27;6.10;;;;;;;;;;5071206;28;20052;-55
2024/02/18 11:24:14;;;;;;;4.25;3.25;;;;;;;;;;5074966;28;20031;-55
2024/02/18 11:30:14;;;;;;;5.68;3.60;;;;;;;;;;5074839;28;20082;-55
2024/02/18 11:36:18;;;;;;;16.60;10.48;;;;;;;;;;5092390;28;20035;-56
2024/02/18 11:46:00;;;;;;;5.22;3.67;;;;;;;;;;5117246;28;20451;-56
2024/02/18 11:52:01;;;;;;;2.50;2.30;;;;;;;;;;5116972;28;20105;-55
2024/02/18 11:58:15;;;;;;;4.82;2.92;;;;;;;;;;5117148;28;20092;-55
2024/02/18 12:04:17;;;;;;;11.35;5.05;;;;;;;;;;5116950;28;20027;-56
2024/02/18 12:10:17;;;;;;;8.63;4.90;;;;;;;;;;5116866;28;20031;-55
2024/02/18 12:16:18;;;;;;;3.17;2.88;;;;;;;;;;5116760;28;20030;-56
2024/02/18 12:22:22;;;;;;;6.25;4.18;;;;;;;;;;5116729;28;20131;-55
2024/02/18 12:28:22;;;;;;;10.65;8.18;;;;;;;;;;5116084;28;20026;-56
2024/02/18 12:34:23;;;;;;;10.55;6.78;;;;;;;;;;5116608;28;20396;-56
2024/02/18 12:44:38;;;;;;;;;;;;;;;;;;5116693;28;20546;-55
2024/02/18 12:58:06;;;;;;;10.10;5.28;;;;;;;;;;5053424;28;20075;-56
2024/02/18 13:01:06;;;;;;;6.93;4.63;;;;;;;;;;5052926;28;20037;-55
2024/02/18 13:07:17;;;;;;;5.35;3.95;;;;;;;;;;5116613;22;20066;-55
2024/02/18 13:09:43;;;;;;;5.28;3.72;;;;;;;;;;5114623;22;20060;-56
2024/02/18 13:12:09;;;;;;;5.03;3.92;;;;;;;;;;5125696;22;20059;-62
2024/02/18 13:14:37;;;;;;;5.38;3.83;;;;;;;;;;5110658;22;20058;-62
2024/02/18 13:17:03;;;;;;;11.57;5.90;;;;;;;;;;5115750;28;20024;-62
2024/02/18 13:19:28;;;;;;;17.13;7.65;;;;;;;;;;5115675;28;20042;-62
2024/02/18 13:21:53;;;;;;;6.40;4.07;;;;;;;;;;5115200;28;20056;-62
2024/02/18 13:24:19;;;;;;;7.03;4.40;;;;;;;;;;5115449;28;20380;-62
2024/02/18 13:26:45;;;;;;;6.60;4.38;;;;;;;;;;5097002;28;20442;-62
2024/02/18 13:29:10;;;;;;;3.42;3.13;;;;;;;;;;5115208;28;20552;-61
2024/02/18 13:31:35;;;;;;;4.65;4.10;;;;;;;;;;5115730;28;20024;-62
2024/02/18 13:34:01;;;;;;;5.60;3.92;;;;;;;;;;5114913;28;20027;-62
2024/02/18 13:36:26;;;;;;;3.92;3.45;;;;;;;;;;5115089;28;20039;-62
2024/02/18 13:38:51;;;;;;;7.07;4.72;;;;;;;;;;5096586;28;20031;-62
2024/02/18 13:41:17;;;;;;;3.70;3.35;;;;;;;;;;5114235;28;20027;-62
2024/02/18 13:43:43;;;;;;;3.63;2.97;;;;;;;;;;5115024;28;20034;-62
2024/02/18 13:46:08;;;;;;;7.50;3.60;;;;;;;;;;5115001;28;20024;-62
2024/02/18 13:48:35;;;;;;;4.00;3.30;;;;;;;;;;5115211;28;20084;-62
2024/02/18 13:51:00;;;;;;;5.32;3.63;;;;;;;;;;5115143;28;20042;-62
2024/02/18 13:53:26;;;;;;;3.83;3.30;;;;;;;;;;5114870;28;20024;-62
2024/02/18 13:55:51;;;;;;;4.15;3.75;;;;;;;;;;5114548;28;20481;-62
2024/02/18 13:58:16;;;;;;;7.25;3.97;;;;;;;;;;5114722;28;20035;-62
2024/02/18 14:00:42;;;;;;;3.88;3.40;;;;;;;;;;5114488;28;20024;-62
2024/02/18 14:03:07;;;;;;;6.57;3.95;;;;;;;;;;5114397;28;20453;-62
2024/02/18 14:05:33;;;;;;;7.47;3.97;;;;;;;;;;5115209;28;20028;-62
2024/02/18 14:07:59;;;;;;;4.43;3.83;;;;;;;;;;5114669;28;20019;-62
2024/02/18 14:10:27;;;;;;;4.68;3.55;;;;;;;;;;5114364;28;20027;-62
2024/02/18 14:12:52;;;;;;;16.45;10.40;;;;;;;;;;5114615;28;20034;-62
2024/02/18 14:15:18;;;;;;;9.80;6.20;;;;;;;;;;5114370;28;20039;-62
2024/02/18 14:17:44;;;;;;;5.20;4.13;;;;;;;;;;5114634;28;20023;-62
2024/02/18 14:20:10;;;;;;;6.28;4.50;;;;;;;;;;5096068;28;20085;-62
2024/02/18 14:22:38;;;;;;;9.20;6.18;;;;;;;;;;5114189;28;20530;-62
2024/02/18 14:25:04;;;;;;;7.15;4.78;;;;;;;;;;5114213;28;20027;-62
2024/02/18 14:27:30;;;;;;;16.13;11.38;;;;;;;;;;5114420;28;20036;-62
2024/02/18 14:29:57;;;;;;;10.13;7.93;;;;;;;;;;5114105;28;20038;-62
2024/02/18 14:32:22;;;;;;;9.88;6.78;;;;;;;;;;5096312;28;20067;-62
2024/02/18 14:34:52;;;;;;;5.90;4.95;;;;;;;;;;5095833;28;20479;-62
2024/02/18 14:37:17;;;;;;;6.07;4.72;;;;;;;;;;5114022;28;20039;-62
2024/02/18 14:39:43;;;;;;;4.43;3.85;;;;;;;;;;5114283;28;20031;-62
2024/02/18 14:42:08;;;;;;;5.05;3.92;;;;;;;;;;5114539;28;20066;-62
2024/02/18 14:44:33;;;;;;;8.10;5.43;;;;;;;;;;5114525;28;20016;-62
2024/02/18 14:47:00;;;;;;;6.78;4.72;;;;;;;;;;5114476;28;20032;-62
2024/02/18 14:49:25;;;;;;;7.13;5.22;;;;;;;;;;5114253;28;20075;-62
2024/02/18 14:51:51;;;;;;;6.35;4.75;;;;;;;;;;5114213;28;20055;-62
2024/02/18 14:54:16;;;;;;;7.28;5.35;;;;;;;;;;5118159;28;20123;-62
2024/02/18 14:56:42;;;;;;;7.40;5.88;;;;;;;;;;5118597;28;20036;-62
2024/02/18 14:59:08;;;;;;;7.80;5.35;;;;;;;;;;5117878;28;20032;-62
2024/02/18 15:01:33;;;;;;;5.93;4.38;;;;;;;;;;5118193;28;20403;-62
2024/02/18 15:03:59;;;;;;;5.75;4.20;;;;;;;;;;5117823;28;20024;-62
2024/02/18 15:06:24;;;;;;;5.47;4.97;;;;;;;;;;5099509;28;20110;-62
2024/02/18 15:08:49;;;;;;;6.82;5.20;;;;;;;;;;5118301;28;20073;-62
2024/02/18 15:11:18;;;;;;;9.27;5.35;;;;;;;;;;5100091;28;20065;-62
2024/02/18 15:13:43;;;;;;;11.65;8.00;;;;;;;;;;5099303;28;20032;-62
2024/02/18 15:16:08;;;;;;;18.65;12.23;;;;;;;;;;5099463;28;20103;-62
2024/02/18 15:18:34;;;;;;;31.88;18.08;;;;;;;;;;5099331;28;20486;-62
2024/02/18 15:20:59;;;;;;;29.92;18.83;;;;;;;;;;5118229;28;20024;-62
2024/02/18 15:23:25;;;;;;;20.35;12.95;;;;;;;;;;5118024;28;20032;-62
2024/02/18 15:25:51;;;;;;;29.75;19.65;;;;;;;;;;5117694;28;20028;-62
2024/02/18 15:28:16;;;;;;;24.98;17.63;;;;;;;;;;5117394;28;20152;-62
2024/02/18 15:30:42;;;;;;;10.95;7.90;;;;;;;;;;5117619;28;20036;-62
2024/02/18 15:33:07;;;;;;;16.23;10.00;;;;;;;;;;5117592;28;20024;-62
2024/02/18 15:35:33;;;;;;;10.30;8.52;;;;;;;;;;5117538;28;20043;-62
2024/02/18 15:37:59;;;;;;;18.20;11.13;;;;;;;;;;5117680;28;20115;-62
2024/02/18 15:40:24;;;;;;;135.80;70.30;;;;;;;;;;5117329;28;20090;-62
2024/02/18 15:42:49;;;;;;;78.53;56.47;;;;;;;;;;5117071;28;20380;-62
2024/02/18 15:45:16;;;;;;;58.10;47.38;;;;;;;;;;5117334;28;20549;-62
2024/02/18 15:47:42;;;;;;;19.73;17.30;;;;;;;;;;5117218;28;20115;-62
2024/02/18 15:50:07;;;;;;;10.38;9.30;;;;;;;;;;5117036;28;20066;-62
2024/02/18 15:52:33;;;;;;;12.82;9.30;;;;;;;;;;5098341;28;20371;-62
2024/02/18 15:54:58;;;;;;;16.88;11.85;;;;;;;;;;5117153;28;20027;-62
2024/02/18 15:57:23;;;;;;;14.13;9.52;;;;;;;;;;5098755;28;20545;-62
2024/02/18 15:59:48;;;;;;;17.50;10.27;;;;;;;;;;5117475;28;20106;-62
2024/02/18 16:02:14;;;;;;;17.70;10.73;;;;;;;;;;5117089;28;20362;-62
2024/02/18 16:04:44;;;;;;;21.50;15.45;;;;;;;;;;5098077;28;20055;-62
2024/02/18 16:07:10;;;;;;;53.00;33.40;;;;;;;;;;5117320;28;20031;-62
2024/02/18 16:09:35;;;;;;;32.00;19.70;;;;;;;;;;5098377;28;20493;-62
2024/02/18 16:12:00;;;;;;;45.85;31.23;;;;;;;;;;5116694;28;20031;-62
2024/02/18 16:14:26;;;;;;;23.98;15.43;;;;;;;;;;5116565;28;20122;-62
2024/02/18 16:16:51;;;;;;;31.50;20.42;;;;;;;;;;5116963;28;20365;-62
2024/02/18 16:19:17;;;;;;;52.83;33.80;;;;;;;;;;5116348;28;20144;-62
2024/02/18 16:21:42;;;;;;;28.73;24.40;;;;;;;;;;5116357;28;20382;-62
2024/02/18 16:24:07;;;;;;;168.55;92.68;;;;;;;;;;5116749;28;20107;-62
2024/02/18 16:26:33;;;;;;;53.13;33.13;;;;;;;;;;5116275;28;20116;-62
2024/02/18 16:28:58;;;;;;;38.65;29.75;;;;;;;;;;5116663;28;20028;-62
2024/02/18 16:31:23;;;;;;;105.53;69.68;;;;;;;;;;5116474;28;20034;-62
2024/02/18 16:33:49;;;;;;;136.55;83.72;;;;;;;;;;5116120;28;20031;-62
2024/02/18 16:36:14;;;;;;;404.80;228.15;;;;;;;;;;5116136;28;20430;-62
2024/02/18 16:38:41;;;;;;;332.85;163.40;;;;;;;;;;5116210;28;20145;-62
2024/02/18 16:41:07;;;;;;;452.58;296.23;;;;;;;;;;5116695;28;20428;-61
2024/02/18 16:43:34;;;;;;;61.90;39.92;;;;;;;;;;5115936;28;20095;-62
2024/02/18 16:46:03;;;;;;;53.10;23.10;;;;;;;;;;5116255;28;20024;-62
2024/02/18 16:48:34;;;;;;;54.97;22.83;;;;;;;;;;5116380;28;20393;-62
2024/02/18 16:50:59;;;;;;;53.80;22.33;;;;;;;;;;5098063;28;20476;-62
2024/02/18 16:53:24;;;;;;;40.78;19.17;;;;;;;;;;5115969;28;20032;-62
2024/02/18 16:55:51;;;;;;;44.95;20.23;;;;;;;;;;5116244;28;20080;-62
2024/02/18 16:58:17;;;;;;;37.90;19.20;;;;;;;;;;5116123;28;20036;-61
2024/02/18 17:00:42;;;;;;;49.60;23.05;;;;;;;;;;5115746;28;20028;-62
2024/02/18 17:03:08;;;;;;;39.67;16.08;;;;;;;;;;5115908;28;20028;-62
2024/02/18 17:05:33;;;;;;;26.98;14.02;;;;;;;;;;5097252;28;20534;-62
2024/02/18 17:07:58;;;;;;;33.08;16.20;;;;;;;;;;5115507;28;20059;-62
2024/02/18 17:10:24;;;;;;;30.85;16.40;;;;;;;;;;5115575;28;20024;-62
2024/02/18 17:12:49;;;;;;;35.72;19.33;;;;;;;;;;5115576;28;20106;-62
2024/02/18 17:15:15;;;;;;;34.20;18.30;;;;;;;;;;5114352;28;20066;-62
2024/02/18 17:17:40;;;;;;;122.18;67.88;;;;;;;;;;5115396;28;20426;-62
2024/02/18 17:20:07;;;;;;;78.00;43.80;;;;;;;;;;5115152;28;20065;-62
2024/02/18 17:22:32;;;;;;;57.90;28.23;;;;;;;;;;5115454;28;20110;-62
2024/02/18 17:24:58;;;;;;;62.20;32.25;;;;;;;;;;5115543;28;20051;-62
2024/02/18 17:27:23;;;;;;;62.22;34.75;;;;;;;;;;5115050;28;20072;-62
2024/02/18 17:29:49;;;;;;;66.97;35.90;;;;;;;;;;5115250;28;20024;-62